Time;durP1;ratioP1;P1;durP2;ratioP2;P2;SDS_P1;SDS_P2;PMS_P1;PMS_P2;Temp;Humidity;BMP_temperature;BMP_pressure;BME280_temperature;BME280_humidity;BME280_pressure;Samples;Min_cycle;Max_cycle;Signal;HPM_P1;HPM_P2
2022/04/17 00:01:06;;;;;;;;;5.00;5.00;;;;;6.23;51.69;100466.09;6303584;20;1819795;-56
2022/04/17 00:03:35;;;;;;;;;6.50;6.00;;;;;6.20;52.84;100474.19;6332563;20;1821206;-56
2022/04/17 00:06:03;;;;;;;;;3.67;3.00;;;;;6.32;52.84;100472.97;6330585;20;1820327;-55
2022/04/17 00:08:32;;;;;;;;;6.00;5.75;;;;;6.10;52.90;100470.94;6328951;20;1821166;-56
2022/04/17 00:11:01;;;;;;;;;1.00;1.00;;;;;6.14;51.83;100472.59;6330074;20;1815584;-56
2022/04/17 00:13:30;;;;;;;;;4.25;4.25;;;;;6.08;51.77;100469.22;6331213;20;1808645;-51
2022/04/17 00:15:58;;;;;;;;;7.75;5.00;;;;;6.07;52.27;100464.84;6331367;20;1823086;-56
2022/04/17 00:18:27;;;;;;;;;4.00;3.00;;;;;5.99;51.95;100458.88;6332840;20;1810694;-55
2022/04/17 00:20:55;;;;;;;;;10.50;5.00;;;;;6.05;51.86;100458.66;6312712;20;2767978;-55
2022/04/17 00:23:24;;;;;;;;;4.75;4.75;;;;;5.91;51.52;100461.72;6300335;20;1824301;-56
2022/04/17 00:25:51;;;;;;;;;1.00;1.00;;;;;5.96;50.97;100458.97;6313931;20;3446055;-56
2022/04/17 00:28:19;;;;;;;;;7.00;7.00;;;;;6.08;51.47;100461.22;6314627;20;2744075;-52
2022/04/17 00:30:48;;;;;;;;;5.33;5.00;;;;;5.97;51.02;100450.03;6308903;20;3470002;-51
2022/04/17 00:33:17;;;;;;;;;6.50;3.00;;;;;5.96;51.32;100450.97;6302282;20;1810835;-57
2022/04/17 00:35:46;;;;;;;;;2.25;2.25;;;;;5.90;50.36;100460.00;6332633;20;1825358;-54
2022/04/17 00:38:15;;;;;;;;;2.25;2.25;;;;;5.87;50.64;100454.72;6332118;20;1825375;-51
2022/04/17 00:40:43;;;;;;;;;6.00;3.00;;;;;5.83;49.92;100451.28;6329750;20;1821205;-53
2022/04/17 00:43:30;;;;;;;;;5.67;1.33;;;;;5.78;50.52;100450.56;6316465;20;3437789;-54
2022/04/17 00:46:00;;;;;;;;;5.25;3.00;;;;;5.76;51.67;100447.06;6330226;20;1825389;-55
2022/04/17 00:48:28;;;;;;;;;5.00;2.67;;;;;5.74;50.92;100454.25;6313186;20;3457513;-51
2022/04/17 00:50:58;;;;;;;;;5.00;5.00;;;;;5.86;51.36;100447.66;6330802;20;1820568;-53
2022/04/17 00:53:28;;;;;;;;;5.67;3.00;;;;;5.83;50.86;100453.09;6313889;20;3461804;-53
2022/04/17 00:55:58;;;;;;;;;2.75;2.75;;;;;5.78;50.82;100437.22;6296804;20;1812804;-52
2022/04/17 00:58:30;;;;;;;;;4.75;4.75;;;;;5.72;50.79;100432.09;6326997;20;1824801;-54
2022/04/17 01:00:59;;;;;;;;;2.00;2.00;;;;;5.81;50.84;100425.59;6328083;20;1811428;-56
2022/04/17 01:03:28;;;;;;;;;1.25;1.25;;;;;5.93;48.97;100422.59;6330021;20;1824439;-51
2022/04/17 01:05:58;;;;;;;;;1.00;1.00;;;;;5.89;48.62;100429.78;6311895;20;3435700;-53
2022/04/17 01:08:27;;;;;;;;;3.00;3.00;;;;;5.90;47.85;100423.53;6328576;20;1822232;-50
2022/04/17 01:10:57;;;;;;;;;2.00;2.00;;;;;5.99;47.91;100421.53;6325115;20;1815896;-51
2022/04/17 01:13:27;;;;;;;;;6.75;2.00;;;;;6.00;47.16;100420.63;6330058;20;1825373;-48
2022/04/17 01:15:58;;;;;;;;;1.00;1.00;;;;;5.90;47.57;100423.53;6312236;20;3433590;-55
2022/04/17 01:18:27;;;;;;;;;2.00;2.00;;;;;5.87;47.80;100422.75;6328911;20;1812201;-52
2022/04/17 01:20:56;;;;;;;;;3.75;2.25;;;;;5.91;47.85;100419.94;6331926;20;1815922;-56
2022/04/17 01:28:57;;;;;;;;;4.33;2.00;;;;;5.77;49.56;100411.50;6282164;20;3461700;-53
2022/04/17 01:31:27;;;;;;;;;1.50;1.50;;;;;5.84;49.84;100423.72;6328687;20;1811746;-51
2022/04/17 01:33:55;;;;;;;;;2.25;2.25;;;;;5.68;49.98;100412.63;6328663;20;1823268;-55
2022/04/17 01:36:24;;;;;;;;;5.00;2.00;;;;;5.66;50.32;100413.59;6329125;20;1814955;-51
2022/04/17 01:38:53;;;;;;;;;3.00;3.00;;;;;5.58;50.75;100415.63;6329255;20;1818055;-52
2022/04/17 01:41:21;;;;;;;;;9.00;9.00;;;;;5.65;50.84;100406.53;6328689;20;1813904;-54
2022/04/17 01:43:49;;;;;;;;;3.00;3.00;;;;;5.50;50.40;100407.84;6313354;20;2743999;-53
2022/04/17 01:46:17;;;;;;;;;5.75;3.50;;;;;5.54;50.83;100403.34;6302796;20;1819166;-53
2022/04/17 01:48:48;;;;;;;;;2.40;1.80;;;;;5.38;50.56;100401.09;6354967;20;2608642;-52
2022/04/17 01:51:16;;;;;;;;;11.50;9.75;;;;;5.52;50.12;100405.16;6303485;20;1822317;-54
2022/04/17 01:53:45;;;;;;;;;4.50;2.00;;;;;5.41;50.33;100408.13;6334596;20;1822220;-54
2022/04/17 01:56:13;;;;;;;;;6.50;3.00;;;;;5.45;50.40;100413.34;6315509;20;2748353;-55
2022/04/17 01:58:41;;;;;;;;;9.00;9.00;;;;;5.41;51.08;100400.16;6337423;20;1823138;-54
2022/04/17 02:01:10;;;;;;;;;3.75;3.75;;;;;5.35;51.78;100403.00;6335781;20;1817091;-55
2022/04/17 02:03:39;;;;;;;;;2.00;2.00;;;;;5.25;51.61;100403.25;6334762;20;1813939;-53
2022/04/17 02:06:07;;;;;;;;;4.00;2.75;;;;;5.41;51.83;100403.69;6332732;20;1817780;-53
2022/04/17 02:08:38;;;;;;;;;10.00;8.00;;;;;5.59;52.51;100396.09;6355775;20;1808682;-55
2022/04/17 02:11:06;;;;;;;;;8.00;8.00;;;;;5.39;53.62;100394.00;6333401;20;1822845;-55
2022/04/17 02:13:36;;;;;;;;;3.00;3.00;;;;;5.53;52.50;100399.81;6330195;20;1820639;-55
2022/04/17 02:16:04;;;;;;;;;4.00;4.00;;;;;5.49;53.07;100401.66;6313947;20;2750706;-55
2022/04/17 02:18:33;;;;;;;;;3.00;3.00;;;;;5.59;53.23;100391.63;6331834;20;1821208;-54
2022/04/17 02:21:01;;;;;;;;;5.00;5.00;;;;;5.40;54.09;100399.28;6313577;20;3457521;-55
2022/04/17 02:23:29;;;;;;;;;11.00;9.00;;;;;5.14;56.80;100394.69;6314553;20;2747138;-53
2022/04/17 02:25:57;;;;;;;;;6.00;6.00;;;;;5.13;57.18;100408.03;6331729;20;1817459;-55
2022/04/17 02:28:27;;;;;;;;;5.25;3.00;;;;;4.91;58.24;100405.09;6333725;20;1823278;-51
2022/04/17 02:30:55;;;;;;;;;6.75;4.00;;;;;5.16;58.59;100397.28;6333274;20;1817987;-55
2022/04/17 02:33:25;;;;;;;;;10.50;5.75;;;;;5.09;59.55;100401.06;6333100;20;1822217;-53
2022/04/17 02:35:54;;;;;;;;;10.00;7.00;;;;;4.80;60.63;100394.75;6316191;20;2768987;-55
2022/04/17 02:38:24;;;;;;;;;9.00;7.00;;;;;4.88;59.98;100392.75;6301294;20;1815035;-52
2022/04/17 02:40:53;;;;;;;;;6.50;6.50;;;;;4.91;60.37;100392.66;6318863;20;2742971;-54
2022/04/17 02:43:22;;;;;;;;;9.00;9.00;;;;;4.55;62.12;100392.69;6316828;20;2737864;-54
2022/04/17 02:45:51;;;;;;;;;9.00;6.00;;;;;4.79;60.53;100388.56;6333332;20;1821225;-54
2022/04/17 02:48:20;;;;;;;;;11.00;7.00;;;;;4.77;60.30;100394.81;6314131;20;2767977;-56
2022/04/17 02:50:49;;;;;;;;;7.25;7.00;;;;;4.79;61.29;100388.56;6301725;20;1818052;-55
2022/04/17 02:53:20;;;;;;;;;5.00;5.00;;;;;4.56;60.99;100391.81;6333071;20;1821155;-54
2022/04/17 02:55:49;;;;;;;;;7.00;5.25;;;;;4.10;62.59;100386.75;6331719;20;1817157;-55
2022/04/17 02:58:17;;;;;;;;;6.50;6.00;;;;;3.94;63.31;100399.50;6312204;20;2746216;-56
2022/04/17 03:06:20;;;;;;;;;8.00;5.50;;;;;4.48;62.01;100404.44;6331751;20;1821275;-53
2022/04/17 03:08:48;;;;;;;;;4.00;3.50;;;;;4.11;62.84;100396.47;6334049;20;1825354;-53
2022/04/17 03:11:17;;;;;;;;;6.50;6.50;;;;;4.04;63.46;100405.50;6332033;20;1825329;-54
2022/04/17 03:13:45;;;;;;;;;7.50;6.25;;;;;4.24;62.96;100400.59;6333572;20;1812392;-54
2022/04/17 03:16:15;;;;;;;;;5.75;5.75;;;;;4.01;62.84;100409.09;6331468;20;1819113;-56
2022/04/17 03:18:44;;;;;;;;;5.00;5.00;;;;;4.07;62.78;100414.25;6331152;20;1819612;-56
2022/04/17 03:21:13;;;;;;;;;5.00;5.00;;;;;3.97;61.93;100402.09;6330119;20;1823292;-55
2022/04/17 03:23:41;;;;;;;;;5.00;5.00;;;;;3.89;62.69;100398.75;6331754;20;1821197;-55
2022/04/17 03:26:10;;;;;;;;;4.00;4.00;;;;;3.87;62.79;100405.84;6302058;20;1824474;-55
2022/04/17 03:28:38;;;;;;;;;6.00;5.00;;;;;4.07;62.33;100408.94;6335194;20;1818868;-52
2022/04/17 03:31:07;;;;;;;;;7.75;6.00;;;;;3.52;64.21;100410.16;6333511;20;1814897;-55
2022/04/17 03:33:35;;;;;;;;;6.00;6.00;;;;;3.58;64.61;100414.47;6332918;20;1810786;-56
2022/04/17 03:36:04;;;;;;;;;6.25;6.00;;;;;3.43;66.34;100411.25;6333213;20;1819024;-55
2022/04/17 03:38:32;;;;;;;;;6.00;6.00;;;;;3.27;67.30;100402.72;6312641;20;3470449;-55
2022/04/17 03:41:00;;;;;;;;;5.00;5.00;;;;;3.27;68.66;100397.41;6299969;20;1810736;-52
2022/04/17 03:43:28;;;;;;;;;7.00;7.00;;;;;2.98;68.98;100402.44;6316277;20;2474264;-50
2022/04/17 03:45:57;;;;;;;;;7.00;5.00;;;;;3.07;67.65;100402.22;6316397;20;3458603;-52
2022/04/17 03:48:25;;;;;;;;;13.00;7.00;;;;;2.94;69.08;100398.94;6313645;20;2759836;-52
2022/04/17 03:50:53;;;;;;;;;9.00;9.00;;;;;3.05;69.81;100401.38;6301886;20;1814511;-52
2022/04/17 03:53:22;;;;;;;;;12.50;8.00;;;;;3.46;67.07;100416.47;6330227;20;1827886;-53
2022/04/17 03:55:50;;;;;;;;;7.00;7.00;;;;;3.17;67.00;100411.75;6313366;20;2732564;-53
2022/04/17 03:58:18;;;;;;;;;14.00;11.00;;;;;3.22;65.34;100407.25;6313053;20;2791954;-53
2022/04/17 04:00:47;;;;;;;;;14.00;10.00;;;;;3.03;66.58;100416.47;6275580;20;2783618;-56
2022/04/17 04:03:16;;;;;;;;;18.00;18.00;;;;;2.95;67.89;100415.72;6280450;20;2815020;-54
2022/04/17 04:05:44;;;;;;;;;9.00;6.00;;;;;3.28;65.81;100423.03;6313016;20;2745506;-56
2022/04/17 04:08:12;;;;;;;;;33.00;24.50;;;;;3.24;66.83;100418.72;6311331;20;2858623;-56
2022/04/17 04:10:40;;;;;;;;;7.00;5.00;;;;;3.55;63.71;100426.03;6279868;20;3470093;-54
2022/04/17 04:13:09;;;;;;;;;6.00;5.00;;;;;3.76;63.26;100424.69;6299033;20;1823247;-56
2022/04/17 04:15:37;;;;;;;;;9.50;6.00;;;;;3.48;65.59;100424.44;6330183;20;1819167;-55
2022/04/17 04:18:05;;;;;;;;;9.50;9.50;;;;;3.59;64.28;100424.19;6312528;20;2748307;-55
2022/04/17 04:20:37;;;;;;;;;9.25;6.25;;;;;3.62;63.45;100422.34;6327939;20;1811750;-53
2022/04/17 04:23:05;;;;;;;;;9.00;9.00;;;;;3.59;64.01;100424.19;6332420;20;1808139;-55
2022/04/17 04:25:34;;;;;;;;;5.25;5.25;;;;;3.93;63.14;100421.69;6331118;20;1823213;-55
2022/04/17 04:30:50;;;;;;;;;5.25;4.00;;;;;3.82;62.56;100426.34;6332292;20;1825369;-56
2022/04/17 04:33:18;;;;;;;;;9.00;6.00;;;;;4.01;61.13;100425.03;6328793;20;1817575;-54
2022/04/17 04:35:47;;;;;;;;;7.00;5.75;;;;;3.92;62.02;100430.53;6331113;20;1812949;-56
2022/04/17 04:38:15;;;;;;;;;9.00;6.25;;;;;4.17;60.84;100429.09;6332137;20;1823377;-55
2022/04/17 04:40:44;;;;;;;;;5.00;5.00;;;;;4.47;59.66;100429.25;6329832;20;1818131;-53
2022/04/17 04:43:12;;;;;;;;;6.25;5.25;;;;;4.71;58.67;100421.56;6330706;20;1821204;-55
2022/04/17 04:51:15;;;;;;;;;4.00;4.00;;;;;8.78;46.40;100430.09;6332132;20;1820978;-56
2022/04/17 04:53:42;;;;;;;;;7.00;6.00;;;;;8.44;46.51;100433.28;6308791;20;2751304;-57
2022/04/17 04:56:10;;;;;;;;;3.00;3.00;;;;;9.75;43.86;100432.03;6282772;20;2739903;-58
2022/04/17 04:58:40;;;;;;;;;3.00;3.00;;;;;11.55;40.20;100429.34;6331847;20;1810777;-57
2022/04/17 05:01:09;;;;;;;;;4.00;4.00;;;;;7.53;46.47;100420.75;6330480;20;1813409;-55
2022/04/17 05:03:38;;;;;;;;;6.25;4.00;;;;;6.19;49.41;100420.91;6330111;20;1821227;-58
2022/04/17 05:06:07;;;;;;;;;7.00;6.00;;;;;7.72;48.27;100417.38;6314727;20;2748401;-56
2022/04/17 05:08:36;;;;;;;;;3.00;3.00;;;;;7.98;46.16;100411.91;6297314;20;1812870;-54
2022/04/17 05:11:05;;;;;;;;;4.00;4.00;;;;;7.20;47.59;100404.16;6330810;20;1820631;-55
2022/04/17 05:13:34;;;;;;;;;3.75;3.25;;;;;6.72;49.55;100412.97;6327928;20;1808740;-54
2022/04/17 05:16:03;;;;;;;;;2.00;1.00;;;;;7.53;47.43;100407.38;6313811;20;3435652;-56
2022/04/17 05:18:32;;;;;;;;;3.00;3.00;;;;;7.85;45.87;100407.97;6331915;20;1810690;-54
2022/04/17 05:21:02;;;;;;;;;3.00;3.00;;;;;8.18;46.21;100412.91;6336204;20;1810826;-57
2022/04/17 05:23:30;;;;;;;;;3.00;3.00;;;;;8.03;43.38;100415.25;6335768;20;1811832;-55
2022/04/17 05:26:03;;;;;;;;;2.75;2.50;;;;;7.15;46.23;100422.13;6337118;20;1814911;-56
2022/04/17 05:28:32;;;;;;;;;3.50;2.00;;;;;7.77;46.94;100420.75;6333138;20;1811948;-55
2022/04/17 05:31:01;;;;;;;;;5.00;5.00;;;;;6.74;48.02;100413.75;6336441;20;1817125;-51
2022/04/17 05:33:29;;;;;;;;;1.33;0.67;;;;;9.65;42.50;100425.34;6307611;20;3441922;-53
2022/04/17 05:35:57;;;;;;;;;3.00;3.00;;;;;11.08;40.36;100427.34;6299172;20;1815502;-55
2022/04/17 05:38:26;;;;;;;;;3.50;3.25;;;;;8.79;43.43;100423.78;6334351;20;1813882;-55
2022/04/17 05:40:55;;;;;;;;;2.00;2.00;;;;;8.48;43.46;100422.41;6319756;20;2744046;-55
2022/04/17 05:43:23;;;;;;;;;5.25;4.00;;;;;9.19;42.42;100425.63;6333632;20;1819109;-53
2022/04/17 05:45:51;;;;;;;;;3.00;3.00;;;;;8.50;42.78;100420.50;6315137;20;2755527;-53
2022/04/17 05:48:22;;;;;;;;;3.00;3.00;;;;;8.68;43.54;100416.19;6324255;20;2587811;-53
2022/04/17 05:50:51;;;;;;;;;5.75;3.00;;;;;8.17;44.11;100424.53;6334469;20;1810816;-51
2022/04/17 05:53:19;;;;;;;;;6.75;3.00;;;;;9.28;43.53;100427.00;6329939;20;1818505;-50
2022/04/17 05:55:47;;;;;;;;;2.00;2.00;;;;;9.27;41.76;100421.72;6315092;20;2750317;-54
2022/04/17 05:58:16;;;;;;;;;2.50;2.50;;;;;8.46;44.17;100426.06;6298897;20;1820176;-55
2022/04/17 06:00:47;;;;;;;;;3.00;3.00;;;;;7.82;43.80;100421.41;6332743;20;1809314;-52
2022/04/17 06:03:15;;;;;;;;;2.00;2.00;;;;;9.01;43.87;100427.28;6318482;20;2733579;-52
2022/04/17 06:05:44;;;;;;;;;2.50;2.50;;;;;9.65;41.04;100430.72;6319199;20;2749209;-51
2022/04/17 06:08:12;;;;;;;;;2.00;2.00;;;;;9.38;40.72;100424.81;6302954;20;1817785;-55
2022/04/17 06:10:41;;;;;;;;;1.00;1.00;;;;;9.52;41.53;100426.84;6332109;20;1807672;-53
2022/04/17 06:13:10;;;;;;;;;2.00;2.00;;;;;8.41;42.36;100425.38;6333897;20;1806606;-52
2022/04/17 06:15:40;;;;;;;;;2.25;2.25;;;;;8.57;43.48;100423.81;6335074;20;1812912;-56
2022/04/17 06:18:09;;;;;;;;;3.00;3.00;;;;;8.95;43.14;100432.91;6317873;20;2745074;-50
2022/04/17 06:20:37;;;;;;;;;2.00;2.00;;;;;9.12;42.04;100426.81;6211612;20;1811795;-50
2022/04/17 06:23:06;;;;;;;;;7.25;3.00;;;;;11.13;38.93;100438.72;6332526;20;1811823;-51
2022/04/17 06:25:35;;;;;;;;;2.25;1.25;;;;;9.88;38.79;100438.56;6334810;20;1815983;-49
2022/04/17 06:28:03;;;;;;;;;3.00;3.00;;;;;11.49;38.15;100436.88;6316546;20;2746138;-55
2022/04/17 06:30:31;;;;;;;;;6.00;6.00;;;;;13.28;35.63;100445.56;6315566;20;2731538;-56
2022/04/17 06:32:59;;;;;;;;;7.00;7.00;;;;;11.89;36.88;100440.13;6286095;20;2748210;-56
2022/04/17 06:35:26;;;;;;;;;4.50;4.50;;;;;13.34;33.84;100447.03;6287179;20;2741032;-57
2022/04/17 06:38:01;;;;;;;;;3.60;2.80;;;;;12.77;34.73;100434.22;6330163;20;2474325;-58
2022/04/17 06:40:33;;;;;;;;;11.00;7.50;;;;;11.30;36.79;100437.00;6317918;20;2760669;-55
2022/04/17 06:43:10;;;;;;;;;10.00;10.00;;;;;13.37;34.45;100450.41;6287020;20;2765231;-57
2022/04/17 06:45:41;;;;;;;;;4.50;4.50;;;;;12.12;34.41;100431.66;6305983;20;1817022;-56
2022/04/17 06:48:16;;;;;;;;;1.00;1.00;;;;;13.16;33.60;100443.56;6338190;20;1805440;-58
2022/04/17 06:50:51;;;;;;;;;7.86;6.00;;;;;14.49;32.11;100446.00;6324188;20;2734751;-56
2022/04/17 06:53:20;;;;;;;;;6.00;5.50;;;;;12.98;33.67;100447.38;6317464;20;2749324;-58
2022/04/17 06:55:49;;;;;;;;;4.75;3.50;;;;;13.21;33.44;100451.41;6303212;20;1810220;-56
2022/04/17 06:58:18;;;;;;;;;2.50;2.00;;;;;13.00;31.86;100434.69;6323169;20;2736745;-56
2022/04/17 07:00:50;;;;;;;;;6.50;2.00;;;;;13.56;32.04;100443.88;6301104;20;1815109;-53
2022/04/17 07:03:19;;;;;;;;;6.25;3.25;;;;;13.50;32.52;100455.03;6336926;20;1807613;-56
2022/04/17 07:05:47;;;;;;;;;3.00;3.00;;;;;12.84;33.92;100445.50;6319160;20;2733614;-55
2022/04/17 07:08:14;;;;;;;;;4.67;3.33;;;;;9.98;37.11;100444.38;6287092;20;3458655;-56
2022/04/17 07:10:43;;;;;;;;;3.00;3.00;;;;;9.32;39.53;100434.00;6302996;20;1817183;-55
2022/04/17 07:13:15;;;;;;;;;1.50;1.50;;;;;9.23;40.63;100434.38;6336915;20;1812050;-55
2022/04/17 07:15:43;;;;;;;;;4.25;2.00;;;;;9.06;41.64;100448.53;6335281;20;1807206;-53
2022/04/17 07:18:12;;;;;;;;;2.00;2.00;;;;;8.93;40.00;100448.19;6337554;20;1816023;-58
2022/04/17 07:20:41;;;;;;;;;2.50;1.25;;;;;8.88;40.09;100442.16;6335460;20;1805546;-52
2022/04/17 07:23:10;;;;;;;;;1.00;1.00;;;;;9.78;38.09;100452.47;6337379;20;1809706;-59
2022/04/17 07:25:38;;;;;;;;;2.00;1.00;;;;;12.99;33.89;100454.53;6336111;20;1803477;-59
2022/04/17 07:28:14;;;;;;;;;1.00;1.00;;;;;13.05;32.48;100456.84;6336383;20;1801395;-59
2022/04/17 07:30:44;;;;;;;;;4.00;4.00;;;;;11.81;34.55;100451.28;6329602;20;1819108;-59
2022/04/17 07:33:12;;;;;;;;;4.00;4.00;;;;;9.28;41.32;100444.91;6317843;20;2748182;-58
2022/04/17 07:35:41;;;;;;;;;2.00;1.00;;;;;10.02;40.85;100445.09;6303534;20;1807728;-58
2022/04/17 07:38:08;;;;;;;;;4.00;3.00;;;;;9.40;40.28;100445.25;6320563;20;2752367;-56
2022/04/17 07:40:39;;;;;;;;;1.50;1.50;;;;;9.72;41.54;100445.59;6301162;20;1811843;-54
2022/04/17 07:43:06;;;;;;;;;4.00;2.50;;;;;9.95;40.60;100449.00;6319412;20;2754985;-55
2022/04/17 07:45:36;;;;;;;;;2.25;1.00;;;;;9.70;40.64;100442.09;6306647;20;1803399;-54
2022/04/17 07:48:06;;;;;;;;;1.00;1.00;;;;;9.60;40.52;100438.97;6337547;20;1802496;-52
2022/04/17 07:50:34;;;;;;;;;3.00;3.00;;;;;9.22;40.93;100433.53;6334911;20;1803448;-52
2022/04/17 07:53:02;;;;;;;;;1.00;1.00;;;;;9.85;40.56;100427.13;6339629;20;1802853;-53
2022/04/17 07:55:31;;;;;;;;;1.25;1.25;;;;;9.21;41.11;100431.75;6302222;20;1812841;-54
2022/04/17 07:58:14;;;;;;;;;1.50;0.50;;;;;9.89;40.11;100426.03;6336563;20;1802437;-52
2022/04/17 08:00:57;;;;;;;;;2.50;2.00;;;;;10.50;40.00;100446.41;6315609;20;2754464;-58
2022/04/17 08:03:37;;;;;;;;;3.00;2.00;;;;;11.36;39.04;100437.53;6289503;20;2754434;-48
2022/04/17 08:06:06;;;;;;;;;0.25;0.25;;;;;9.79;39.00;100422.91;6304970;20;1807630;-46
2022/04/17 08:08:37;;;;;;;;;2.50;2.50;;;;;9.73;38.08;100427.69;6319240;20;2746174;-44
2022/04/17 08:11:05;;;;;;;;;3.00;2.00;;;;;10.59;38.23;100416.41;6289946;20;2744422;-46
2022/04/17 08:13:35;;;;;;;;;3.00;3.00;;;;;10.71;39.12;100418.47;6287154;20;2748289;-47
2022/04/17 08:16:05;;;;;;;;;3.00;3.00;;;;;10.52;38.13;100417.66;6286270;20;2756504;-50
2022/04/17 08:18:40;;;;;;;;;4.00;4.00;;;;;10.57;39.19;100423.69;6287116;20;2748322;-46
2022/04/17 08:21:10;;;;;;;;;3.00;3.00;;;;;9.20;39.48;100415.78;6303176;20;1807645;-47
2022/04/17 08:23:38;;;;;;;;;2.75;2.75;;;;;9.66;39.24;100416.38;6332761;20;1807524;-51
2022/04/17 08:26:07;;;;;;;;;2.25;2.25;;;;;9.00;40.27;100409.50;6334577;20;1817032;-52
2022/04/17 08:28:35;;;;;;;;;2.00;2.00;;;;;9.34;39.80;100407.97;6342271;20;1805562;-49
2022/04/17 08:31:04;;;;;;;;;2.00;2.00;;;;;10.41;39.44;100403.91;6302688;20;1816007;-48
2022/04/17 08:33:32;;;;;;;;;3.25;2.00;;;;;9.84;39.10;100402.09;6334997;20;1800297;-49
2022/04/17 08:36:00;;;;;;;;;2.50;2.50;;;;;9.67;38.79;100404.72;6317526;20;2750376;-45
2022/04/17 08:38:29;;;;;;;;;3.00;3.00;;;;;10.21;39.40;100412.88;6304473;20;1812050;-55
2022/04/17 08:40:58;;;;;;;;;3.00;3.00;;;;;9.86;39.11;100412.75;6317765;20;2754426;-59
2022/04/17 08:43:27;;;;;;;;;5.00;3.00;;;;;10.06;37.86;100403.78;6284847;20;2747123;-59
2022/04/17 08:45:56;;;;;;;;;2.50;2.50;;;;;10.39;37.87;100406.66;6331677;20;1809723;-59
2022/04/17 08:48:26;;;;;;;;;3.00;1.00;;;;;11.12;38.32;100407.44;6334864;20;1809720;-47
2022/04/17 08:50:56;;;;;;;;;3.50;2.00;;;;;10.40;39.01;100397.69;6331347;20;1809740;-49
2022/04/17 08:53:26;;;;;;;;;2.75;2.75;;;;;10.51;38.30;100399.81;6337211;20;1813520;-54
2022/04/17 08:55:54;;;;;;;;;4.00;4.00;;;;;10.52;39.00;100398.88;6320044;20;2756547;-48
2022/04/17 08:58:23;;;;;;;;;3.25;3.00;;;;;10.94;36.88;100389.56;6307745;20;1807677;-46
2022/04/17 09:00:51;;;;;;;;;0.00;0.00;;;;;11.08;38.06;100376.28;6323788;20;2739968;-58
2022/04/17 09:03:18;;;;;;;;;3.00;3.00;;;;;11.33;37.96;100372.31;6288969;20;2751317;-59
2022/04/17 09:05:47;;;;;;;;;2.00;2.00;;;;;9.39;39.42;100383.66;6309059;20;1813921;-58
2022/04/17 09:08:20;;;;;;;;;2.75;2.75;;;;;10.38;38.66;100388.81;6337313;20;1817042;-58
2022/04/17 09:10:59;;;;;;;;;4.25;4.00;;;;;11.34;37.74;100369.50;6337926;20;1810747;-59
2022/04/17 09:13:34;;;;;;;;;4.00;4.00;;;;;11.29;36.03;100370.72;6320674;20;2746138;-58
2022/04/17 09:16:03;;;;;;;;;2.00;2.00;;;;;11.85;36.54;100367.63;6292168;20;2750247;-54
2022/04/17 09:18:32;;;;;;;;;4.00;2.75;;;;;11.48;37.49;100363.41;6308647;20;1803477;-57
2022/04/17 09:21:03;;;;;;;;;1.50;1.50;;;;;11.56;36.18;100368.38;6325460;20;2737791;-54
2022/04/17 09:23:38;;;;;;;;;2.00;2.00;;;;;11.39;35.90;100361.22;6308770;20;1807670;-55
2022/04/17 09:26:07;;;;;;;;;5.00;3.00;;;;;11.28;36.42;100360.94;6319557;20;2744012;-55
2022/04/17 09:28:38;;;;;;;;;5.00;3.00;;;;;10.82;37.00;100356.19;6307935;20;1805597;-56
2022/04/17 09:31:12;;;;;;;;;7.00;4.00;;;;;10.52;38.02;100355.91;6322535;20;2750256;-56
2022/04/17 09:33:49;;;;;;;;;3.75;3.75;;;;;10.41;36.90;100352.91;6309082;20;1812335;-56
2022/04/17 09:36:29;;;;;;;;;3.50;3.00;;;;;9.88;38.38;100344.69;6322330;20;2756594;-53
2022/04/17 09:39:15;;;;;;;;;3.50;3.50;;;;;9.84;38.53;100343.09;6288683;20;2750275;-51
2022/04/17 09:42:03;;;;;;;;;3.25;3.25;;;;;10.87;38.29;100340.66;6308012;20;1812936;-57
2022/04/17 09:44:55;;;;;;;;;3.50;3.00;;;;;11.26;36.57;100339.50;6323670;20;2744053;-57
2022/04/17 09:47:29;;;;;;;;;4.00;4.00;;;;;10.25;37.58;100337.53;6287082;20;2753374;-52
2022/04/17 09:50:08;;;;;;;;;2.00;2.00;;;;;11.14;37.55;100335.66;6309324;20;1811766;-56
2022/04/17 09:52:48;;;;;;;;;5.00;3.00;;;;;11.51;36.50;100333.66;6324752;20;2738795;-58
2022/04/17 09:55:27;;;;;;;;;8.00;8.00;;;;;12.50;35.66;100329.81;6320199;20;2739832;-59
2022/04/17 09:57:59;;;;;;;;;2.00;2.00;;;;;11.61;36.58;100321.44;6292667;20;2744003;-56
2022/04/17 10:00:27;;;;;;;;;3.00;3.00;;;;;11.60;36.16;100314.31;6283738;20;2750375;-60
2022/04/17 10:02:55;;;;;;;;;4.75;2.50;;;;;10.58;37.24;100317.13;6303107;20;1809817;-59
2022/04/17 10:05:23;;;;;;;;;3.00;3.00;;;;;10.56;37.62;100311.84;6320206;20;2737863;-58
2022/04/17 10:07:52;;;;;;;;;2.00;2.00;;;;;11.68;37.86;100304.94;6319353;20;2737745;-58
2022/04/17 10:10:19;;;;;;;;;2.00;2.00;;;;;11.61;35.81;100309.78;6318592;20;2752356;-59
2022/04/17 10:12:47;;;;;;;;;2.00;2.00;;;;;10.81;36.24;100302.50;6289257;20;2747137;-58
2022/04/17 10:15:15;;;;;;;;;3.00;3.00;;;;;11.75;34.77;100300.97;6288716;20;2748280;-58
2022/04/17 10:17:46;;;;;;;;;1.00;1.00;;;;;11.70;35.24;100285.09;6307220;20;1802463;-59
2022/04/17 10:20:15;;;;;;;;;3.00;3.00;;;;;11.55;35.11;100286.81;6320154;20;2733610;-58
2022/04/17 10:22:47;;;;;;;;;3.50;3.00;;;;;12.89;35.54;100279.84;6287857;20;2733583;-59
2022/04/17 10:25:17;;;;;;;;;3.25;3.00;;;;;12.17;34.91;100272.56;6306434;20;1811836;-58
2022/04/17 10:29:22;;;;;;;;;3.00;1.50;;;;;11.23;35.79;100274.28;6318634;20;2746313;-57
2022/04/17 10:32:35;;;;;;;;;4.00;2.50;;;;;12.58;34.91;100275.47;6284593;20;2756571;-57
2022/04/17 10:35:57;;;;;;;;;40.33;36.33;;;;;12.24;34.40;100258.66;6281831;20;3596110;-58
2022/04/17 10:39:14;;;;;;;;;4.00;4.00;;;;;11.57;36.25;100258.00;6286153;20;2751454;-59
2022/04/17 10:41:42;;;;;;;;;2.00;2.00;;;;;11.09;36.30;100262.47;6286498;20;2752375;-56
2022/04/17 10:44:12;;;;;;;;;12.33;12.00;;;;;11.79;36.02;100259.47;6282242;20;3536962;-59
2022/04/17 10:46:50;;;;;;;;;49.50;36.17;;;;;11.86;35.40;100247.44;6338796;20;3625255;-59
2022/04/17 10:49:28;;;;;;;;;3.00;3.00;;;;;10.84;36.10;100248.63;6333145;20;1802914;-57
2022/04/17 10:52:02;;;;;;;;;1.00;1.00;;;;;10.58;35.14;100250.88;6333983;20;1803417;-54
2022/04/17 10:54:52;;;;;;;;;3.00;3.00;;;;;10.49;35.41;100236.13;6315081;20;2741063;-56
2022/04/17 10:57:24;;;;;;;;;3.00;3.00;;;;;10.65;35.71;100241.53;6301388;20;1807681;-50
2022/04/17 11:00:38;;;;;;;;;3.00;3.00;;;;;11.18;34.70;100235.06;6314612;20;2750466;-58
2022/04/17 11:03:26;;;;;;;;;3.50;2.00;;;;;11.49;35.97;100243.28;6289562;20;2748211;-58
2022/04/17 11:06:12;;;;;;;;;11.50;11.50;;;;;11.20;35.46;100245.75;6286654;20;2800240;-57
2022/04/17 11:08:57;;;;;;;;;2.00;2.00;;;;;11.47;35.87;100234.41;6288341;20;2738824;-57
2022/04/17 11:11:45;;;;;;;;;13.60;13.40;;;;;11.60;35.69;100235.44;6310944;20;2796082;-57
2022/04/17 11:14:20;;;;;;;;;3.50;2.00;;;;;11.99;35.65;100232.31;6290365;20;2753405;-58
2022/04/17 11:16:59;;;;;;;;;1.25;1.25;;;;;12.61;34.27;100226.81;6297771;20;1809736;-59
2022/04/17 11:19:32;;;;;;;;;12.00;12.00;;;;;12.89;34.03;100228.66;6314503;20;2807569;-57
2022/04/17 11:22:04;;;;;;;;;4.00;3.50;;;;;12.24;33.66;100225.47;6290090;20;2751333;-58
2022/04/17 11:24:54;;;;;;;;;1.00;1.00;;;;;12.50;34.18;100224.75;6302788;20;1807760;-53
2022/04/17 11:27:50;;;;;;;;;5.00;5.00;;;;;13.57;32.40;100218.97;6317801;20;2757043;-56
2022/04/17 11:30:38;;;;;;;;;1.00;0.00;;;;;12.72;33.54;100229.72;6287813;20;2726287;-59
2022/04/17 11:33:07;;;;;;;;;2.00;2.00;;;;;11.54;34.20;100222.38;6303903;20;1809885;-57
2022/04/17 11:35:36;;;;;;;;;2.00;2.00;;;;;11.64;34.87;100221.75;6318993;20;2724268;-58
2022/04/17 11:38:08;;;;;;;;;3.00;3.00;;;;;12.32;34.18;100223.19;6286941;20;2734649;-57
2022/04/17 11:40:38;;;;;;;;;0.00;0.00;;;;;12.37;33.67;100214.81;6307132;20;1802918;-54
2022/04/17 11:43:15;;;;;;;;;3.00;3.00;;;;;13.32;33.74;100212.50;6318591;20;2458651;-57
2022/04/17 11:45:46;;;;;;;;;4.00;4.00;;;;;14.01;34.35;100207.06;6287782;20;2746528;-57
2022/04/17 11:48:19;;;;;;;;;7.00;4.50;;;;;13.79;31.83;100202.22;6288089;20;2739852;-59
2022/04/17 11:50:55;;;;;;;;;3.50;3.50;;;;;12.84;31.90;100203.81;6281961;20;2734681;-56
2022/04/17 11:53:23;;;;;;;;;5.00;5.00;;;;;12.64;33.26;100193.44;6288707;20;2745166;-56